Flight Track Log - Related Links

Times and Time Zones

All times are in EDT time to prevent confusion due to time zone crossing. See the N258PA flight status page for this flight to view local times or setup timezone preferences in your user account.

Time Position Orientation Groundspeed Altitude Reporting Facility
EDT Latitude Longitude Course Direction KTS MPH feet Rate Location/Type
22:30 44.0536 -73.3386 189° South 115 132 4,600  Level Boston Center
22:31 44.0181 -73.3467 189° South 115 132 4,800 227 Climbing Boston Center
22:32 43.9869 -73.3547 191° South 115 132 5,100 250 Climbing Boston Center
22:33 43.9597 -73.3631 192° South 110 127 5,300 200 Climbing Boston Center
22:34 43.9303 -73.3742 195° South 110 127 5,500 200 Climbing Boston Center
22:35 43.9011 -73.3881 199° South 110 127 5,700 200 Climbing Boston Center
22:36 43.8719 -73.3992 195° South 110 127 5,900 200 Climbing Boston Center
22:37 43.8425 -73.4131 199° South 110 127 6,100 150 Climbing Boston Center
22:38 43.8133 -73.4269 199° South 110 127 6,200 150 Climbing Boston Center
22:39 43.7819 -73.4408 198° South 110 127 6,400 -850 Climbing Boston Center
22:40 43.7547 -73.4547 200° South 110 127 4,500 150 Descending Boston Center
22:41 43.7192 -73.4742 202° Southwest 115 132 6,700 1,200 Climbing Boston Center
22:42 43.6897 -73.4853 195° South 115 132 6,900 150 Climbing Boston Center
22:43 43.6583 -73.4989 197° South 115 132 7,000 50 Climbing Boston Center
22:44 43.6269 -73.5156 201° Southwest 115 132 7,000 63 Level Boston Center
22:44 43.6081 -73.5297 209° Southwest 120 138 7,100 102 Climbing Boston Center
22:45 43.5956 -73.5353 198° South 120 138 7,100 71 Level Boston Center
22:46 43.5619 -73.5489 196° South 120 138 7,200 99 Climbing Boston Center
22:47 43.5286 -73.5569 190° South 125 144 7,300 50 Climbing Boston Center
22:48 43.4992 -73.5764 206° Southwest 130 150 7,300  Level Boston Center
22:49 43.4658 -73.5900 197° South 130 150 7,300 -52 Level Boston Center
22:50 43.4322 -73.6122 206° Southwest 129 148 7,200 -150 Descending Boston Center
22:51 43.3947 -73.6258 195° South 130 150 7,000 -197 Descending Boston Center
22:52 43.3653 -73.6453 206° Southwest 132 152 6,800 -254 Descending Boston Center
22:53 43.3275 -73.6617 198° South 133 153 6,500 -198 Descending Boston Center
22:54 43.2919 -73.6722 192° South 133 153 6,400 -149 Descending Boston Center
22:55 43.2544 -73.6858 195° South 135 155 6,200 -149 Descending Boston Center
22:56 43.2186 -73.6994 195° South 135 155 6,100 -198 Descending Boston Center
22:57 43.1811 -73.7100 192° South 135 155 5,800 -300 Descending Boston Center
22:58 43.1497 -73.7206 194° South 135 155 5,500 -300 Descending Boston Center
22:59 43.1100 -73.7342 194° South 135 155 5,200 -344 Descending Boston Center
23:00 43.0744 -73.7506 199° South 131 151 4,800 -390 Descending Boston Center
23:01 43.0367 -73.7639 194° South 132 152 4,400 -393 Descending Boston Center
23:02 43.0011 -73.7744 192° South 130 150 4,000 -347 Descending Boston Center
23:03 42.9675 -73.7936 203° Southwest 127 146 3,700 -298 Descending Boston Center
23:04 42.9339 -73.8097 199° South 127 146 3,400 -248 Descending Boston Center
23:05 42.9028 -73.8175 190° South 123 142 3,200 -248 Descending Boston Center
23:06 42.8694 -73.8139 175° South 116 133 2,900 -344 Descending Boston Center
23:07 42.8381 -73.8161 183° South 119 137 2,500 -694 Descending Boston Center
23:08 42.8089 -73.8100 171° South 98 113 1,500 -942 Descending Boston Center
23:09 42.7839 -73.8064 174° South 73 84 600 -590 Descending Boston Center
23:10 42.7672 -73.8061 179° South 55 63 300 -295 Descending Boston Center
23:12 42.7491 -73.8020 196° South  Level Estimated
23:19 42.7491 -73.8020 196° South  Level Estimated
23:20 42.7491 -73.8020 196° South  Level Estimated
23:21 42.7491 -73.8020 196° South  Level Estimated
23:22 42.7491 -73.8020 196° South  Level Estimated

Login

Don't have an account? Register now (free) for customized features, flight alerts, and more!